createdAt,value
2019-03-15T00:01:42.185Z,19.46
2019-03-15T00:04:10.731Z,19.47
2019-03-15T00:06:38.942Z,19.44
2019-03-15T00:09:08.766Z,19.49
2019-03-15T00:11:36.972Z,19.46
2019-03-15T00:14:05.475Z,19.48
2019-03-15T00:16:33.674Z,19.45
2019-03-15T00:19:01.880Z,19.41
2019-03-15T00:21:30.403Z,19.44
2019-03-15T00:23:58.600Z,19.42
2019-03-15T00:26:26.809Z,19.45
2019-03-15T00:28:55.016Z,19.42
2019-03-15T00:31:23.255Z,19.41
2019-03-15T00:33:51.621Z,19.43
2019-03-15T00:36:19.837Z,19.39
2019-03-15T00:38:48.022Z,19.39
2019-03-15T00:41:16.222Z,19.41
2019-03-15T00:43:44.420Z,19.44
2019-03-15T00:46:12.960Z,19.38
2019-03-15T00:48:41.154Z,19.39
2019-03-15T00:51:09.355Z,19.35
2019-03-15T00:53:37.558Z,19.36
2019-03-15T00:56:05.807Z,19.38
2019-03-15T00:58:34.008Z,19.32
2019-03-15T01:01:02.509Z,19.34
2019-03-15T01:03:30.720Z,19.35
2019-03-15T01:05:59.330Z,19.37
2019-03-15T01:08:27.848Z,19.39
2019-03-15T01:10:56.057Z,19.37
2019-03-15T01:13:24.262Z,19.37
2019-03-15T01:15:52.464Z,19.32
2019-03-15T01:18:20.677Z,19.35
2019-03-15T01:20:49.229Z,19.33
2019-03-15T01:23:17.458Z,19.33
2019-03-15T01:25:45.984Z,19.33
2019-03-15T01:28:14.190Z,19.32
2019-03-15T01:30:42.740Z,19.32
2019-03-15T01:33:10.944Z,19.33
2019-03-15T01:35:39.142Z,19.33
2019-03-15T01:38:07.675Z,19.30
2019-03-15T01:40:35.879Z,19.30
2019-03-15T01:43:04.087Z,19.29
2019-03-15T01:45:32.289Z,19.33
2019-03-15T01:48:00.500Z,19.30
2019-03-15T01:50:29.056Z,19.32
2019-03-15T01:52:58.500Z,19.34
2019-03-15T01:55:26.717Z,19.30
2019-03-15T01:57:55.213Z,19.28
2019-03-15T02:00:23.695Z,19.36
2019-03-15T02:02:52.170Z,19.33
2019-03-15T02:05:20.367Z,19.33
2019-03-15T02:07:48.573Z,19.29
2019-03-15T02:10:16.785Z,19.24
2019-03-15T02:12:45.282Z,19.28
2019-03-15T02:15:13.480Z,19.31
2019-03-15T02:17:41.682Z,19.31
2019-03-15T02:20:09.881Z,19.28
2019-03-15T02:22:38.382Z,19.27
2019-03-15T02:25:06.585Z,19.30
2019-03-15T02:27:34.789Z,19.28
2019-03-15T02:30:03.727Z,19.31
2019-03-15T02:32:31.927Z,19.32
2019-03-15T02:35:00.575Z,19.30
2019-03-15T02:37:28.762Z,19.27
2019-03-15T02:39:56.960Z,19.26
2019-03-15T02:42:26.209Z,19.30
2019-03-15T02:44:54.562Z,19.27
2019-03-15T02:47:22.763Z,19.27
2019-03-15T02:49:50.965Z,19.30
2019-03-15T02:52:19.181Z,19.27
2019-03-15T02:54:47.723Z,19.26
2019-03-15T02:57:15.929Z,19.26
2019-03-15T02:59:44.130Z,19.23
2019-03-15T03:02:12.332Z,19.28
2019-03-15T03:04:42.563Z,19.26
2019-03-15T03:07:10.750Z,19.24
2019-03-15T03:09:39.324Z,19.26
2019-03-15T03:12:07.509Z,19.26
2019-03-15T03:14:35.722Z,19.25
2019-03-15T03:17:03.927Z,19.25
2019-03-15T03:19:32.124Z,19.30
2019-03-15T03:22:00.326Z,19.27
2019-03-15T03:24:28.522Z,19.25
2019-03-15T03:26:57.046Z,19.22
2019-03-15T03:29:25.233Z,19.25
2019-03-15T03:31:53.437Z,19.23
2019-03-15T03:34:21.648Z,19.25
2019-03-15T03:36:50.158Z,19.25
2019-03-15T03:39:18.360Z,19.23
2019-03-15T03:41:46.902Z,19.26
2019-03-15T03:44:15.111Z,19.22
2019-03-15T03:46:43.562Z,19.26
2019-03-15T03:49:11.761Z,19.24
2019-03-15T03:51:39.964Z,19.25
2019-03-15T03:54:08.168Z,19.20
2019-03-15T03:56:36.655Z,19.24
2019-03-15T03:59:04.854Z,19.28
2019-03-15T04:01:33.429Z,19.25
2019-03-15T04:04:01.626Z,19.23
2019-03-15T04:06:29.825Z,19.23
2019-03-15T04:08:58.029Z,19.24
2019-03-15T04:11:26.241Z,19.27
2019-03-15T04:13:54.446Z,19.24
2019-03-15T04:16:22.647Z,19.23
2019-03-15T04:18:51.139Z,19.23
2019-03-15T04:21:19.340Z,19.20
2019-03-15T04:23:47.547Z,19.22
2019-03-15T04:26:15.745Z,19.20
2019-03-15T04:28:43.965Z,19.22
2019-03-15T04:31:12.189Z,19.22
2019-03-15T04:33:40.420Z,19.23
2019-03-15T04:36:08.604Z,19.21
2019-03-15T04:38:36.800Z,19.22
2019-03-15T04:41:05.314Z,19.23
2019-03-15T04:43:33.796Z,19.22
2019-03-15T04:46:01.996Z,19.18
2019-03-15T04:48:30.559Z,19.23
2019-03-15T04:50:59.022Z,19.19
2019-03-15T04:53:27.228Z,19.21
2019-03-15T04:55:55.437Z,19.19
2019-03-15T04:58:23.639Z,19.22
2019-03-15T05:00:52.137Z,19.22
2019-03-15T05:03:20.353Z,19.14
2019-03-15T05:06:01.937Z,19.19
2019-03-15T05:08:18.475Z,19.21
2019-03-15T05:10:46.689Z,19.15
2019-03-15T05:13:15.257Z,19.14
2019-03-15T05:15:43.746Z,19.21
2019-03-15T05:18:12.323Z,19.23
2019-03-15T05:20:40.806Z,19.21
2019-03-15T05:23:09.285Z,19.20
2019-03-15T05:25:37.490Z,19.22
2019-03-15T05:28:05.695Z,19.22
2019-03-15T05:30:33.891Z,19.18
2019-03-15T05:33:02.133Z,19.13
2019-03-15T05:35:30.669Z,19.18
2019-03-15T05:37:59.155Z,19.21
2019-03-15T05:40:27.393Z,19.20
2019-03-15T05:42:55.590Z,19.14
2019-03-15T05:45:23.789Z,19.22
2019-03-15T05:47:52.006Z,19.19
2019-03-15T05:50:20.217Z,19.22
2019-03-15T05:52:48.489Z,19.17
2019-03-15T05:55:16.979Z,19.18
2019-03-15T05:57:45.176Z,19.19
2019-03-15T06:00:14.341Z,19.22
2019-03-15T06:02:42.827Z,19.22
2019-03-15T06:05:11.091Z,19.22
2019-03-15T06:07:39.584Z,19.21
2019-03-15T06:10:10.333Z,19.20
2019-03-15T06:12:38.906Z,19.21
2019-03-15T06:15:11.085Z,19.23
2019-03-15T06:17:39.292Z,19.29
2019-03-15T06:20:10.516Z,19.25
2019-03-15T06:22:39.069Z,19.26
2019-03-15T06:25:08.410Z,19.29
2019-03-15T06:27:36.627Z,19.13
2019-03-15T06:30:08.403Z,19.15
2019-03-15T06:32:36.606Z,19.15
2019-03-15T06:35:05.262Z,19.18
2019-03-15T06:37:33.745Z,19.20
2019-03-15T06:40:02.934Z,19.21
2019-03-15T06:42:31.234Z,19.26
2019-03-15T06:44:59.446Z,19.27
2019-03-15T06:47:27.655Z,19.22
2019-03-15T06:49:56.262Z,19.22
2019-03-15T06:52:24.478Z,19.24
2019-03-15T06:54:52.685Z,19.25
2019-03-15T06:57:20.902Z,19.26
2019-03-15T06:59:49.124Z,19.27
2019-03-15T07:02:17.341Z,19.30
2019-03-15T07:04:45.553Z,19.27
2019-03-15T07:07:15.190Z,19.28
2019-03-15T07:09:43.693Z,19.31
2019-03-15T07:12:12.166Z,19.31
2019-03-15T07:14:40.386Z,19.48
2019-03-15T07:17:08.922Z,19.43
2019-03-15T07:19:37.413Z,19.43
2019-03-15T07:22:05.989Z,19.40
2019-03-15T07:24:34.196Z,19.41
2019-03-15T07:27:11.983Z,19.41
2019-03-15T07:29:34.901Z,19.41
2019-03-15T07:32:03.121Z,19.41
2019-03-15T07:34:31.336Z,19.41
2019-03-15T07:36:59.863Z,19.44
2019-03-15T07:39:28.080Z,19.44
2019-03-15T07:41:56.643Z,19.45
2019-03-15T07:44:24.850Z,19.43
2019-03-15T07:46:53.052Z,19.43
2019-03-15T07:49:21.264Z,19.46
2019-03-15T07:51:49.480Z,19.49
2019-03-15T07:54:17.973Z,19.53
2019-03-15T07:56:46.466Z,19.53
2019-03-15T07:59:14.682Z,19.55
2019-03-15T08:01:43.223Z,19.52
2019-03-15T08:04:17.023Z,19.52
2019-03-15T08:06:41.369Z,19.50
2019-03-15T08:09:09.900Z,19.51
2019-03-15T08:11:38.115Z,19.51
2019-03-15T08:14:06.318Z,19.51
2019-03-15T08:16:34.789Z,19.52
2019-03-15T08:19:05.012Z,19.51
2019-03-15T08:21:32.953Z,19.54
2019-03-15T08:24:01.168Z,19.55
2019-03-15T08:26:30.350Z,19.54
2019-03-15T08:28:58.966Z,19.53
2019-03-15T08:31:27.189Z,19.52
2019-03-15T08:33:55.717Z,19.53
2019-03-15T08:36:24.303Z,19.56
2019-03-15T08:38:52.897Z,19.55
2019-03-15T08:41:21.111Z,19.55
2019-03-15T08:43:49.324Z,19.52
2019-03-15T08:46:17.534Z,19.57
2019-03-15T08:48:45.746Z,19.53
2019-03-15T08:51:13.961Z,19.56
2019-03-15T08:53:42.167Z,19.56
2019-03-15T08:56:14.092Z,19.56
2019-03-15T08:58:40.939Z,19.58
2019-03-15T09:01:10.925Z,19.56
2019-03-15T09:03:39.103Z,19.56
2019-03-15T09:06:07.319Z,19.58
2019-03-15T09:08:37.338Z,19.58
2019-03-15T09:11:05.803Z,19.58
2019-03-15T09:13:34.021Z,19.57
2019-03-15T09:16:02.568Z,19.57
2019-03-15T09:18:30.777Z,19.57
2019-03-15T09:20:58.990Z,19.59
2019-03-15T09:23:27.199Z,19.55
2019-03-15T09:25:55.425Z,19.60
2019-03-15T09:28:23.934Z,19.58
2019-03-15T09:30:52.148Z,19.56
2019-03-15T09:33:20.693Z,19.56
2019-03-15T09:35:48.905Z,19.57
2019-03-15T09:38:17.109Z,19.58
2019-03-15T09:40:45.325Z,19.58
2019-03-15T09:43:13.539Z,19.58
2019-03-15T09:45:41.751Z,19.58
2019-03-15T09:48:09.964Z,19.60
2019-03-15T09:50:50.735Z,19.59
2019-03-15T09:53:08.111Z,19.59
2019-03-15T09:55:36.342Z,19.57
2019-03-15T09:58:04.554Z,19.58
2019-03-15T10:00:33.178Z,19.60
2019-03-15T10:03:01.767Z,19.56
2019-03-15T10:05:30.328Z,19.56
2019-03-15T10:07:58.921Z,19.58
2019-03-15T10:10:27.404Z,19.57
2019-03-15T10:13:05.768Z,19.57
2019-03-15T10:15:26.597Z,19.58
2019-03-15T10:17:55.407Z,19.59
2019-03-15T10:20:23.613Z,19.56
2019-03-15T10:23:05.475Z,19.61
2019-03-15T10:25:21.761Z,19.59
2019-03-15T10:27:49.968Z,19.60
2019-03-15T10:30:20.176Z,19.61
2019-03-15T10:32:48.380Z,19.60
2019-03-15T10:35:16.907Z,19.60
2019-03-15T10:37:45.384Z,19.61
2019-03-15T10:40:23.706Z,19.64
2019-03-15T10:42:55.211Z,19.59
2019-03-15T10:45:22.192Z,19.60
2019-03-15T10:47:50.400Z,19.60
2019-03-15T10:50:20.726Z,19.59
2019-03-15T10:52:48.853Z,19.58
2019-03-15T10:55:20.362Z,19.57
2019-03-15T10:57:46.999Z,19.56
2019-03-15T11:00:17.671Z,19.58
2019-03-15T11:02:46.175Z,19.58
2019-03-15T11:05:14.379Z,19.59
2019-03-15T11:07:42.595Z,19.58
2019-03-15T11:10:11.927Z,19.60
2019-03-15T11:12:40.504Z,19.58
2019-03-15T11:15:11.965Z,19.59
2019-03-15T11:17:40.193Z,19.59
2019-03-15T11:20:09.734Z,19.57
2019-03-15T11:22:37.944Z,19.56
2019-03-15T11:25:08.161Z,19.56
2019-03-15T11:27:36.378Z,19.57
2019-03-15T11:30:06.612Z,19.55
2019-03-15T11:32:34.821Z,19.59
2019-03-15T11:35:03.017Z,19.60
2019-03-15T11:37:31.223Z,19.58
2019-03-15T11:39:59.429Z,19.60
2019-03-15T11:42:27.920Z,19.60
2019-03-15T11:44:56.128Z,19.60
2019-03-15T11:47:24.340Z,19.57
2019-03-15T11:49:52.837Z,19.61
2019-03-15T11:52:21.048Z,19.60
2019-03-15T11:54:49.954Z,19.59
2019-03-15T11:57:18.613Z,19.61
2019-03-15T11:59:47.172Z,19.64
2019-03-15T12:02:15.645Z,19.59
2019-03-15T12:04:43.850Z,19.65
2019-03-15T12:07:12.061Z,19.61
2019-03-15T12:09:41.053Z,19.61
2019-03-15T12:12:09.471Z,19.63
2019-03-15T12:14:41.264Z,19.61
2019-03-15T12:17:07.971Z,19.60
2019-03-15T12:19:36.554Z,19.61
2019-03-15T12:22:06.439Z,19.60
2019-03-15T12:24:34.701Z,19.65
2019-03-15T12:27:03.222Z,19.63
2019-03-15T12:29:31.425Z,19.64
2019-03-15T12:31:59.624Z,19.67
2019-03-15T12:34:27.842Z,19.67
2019-03-15T12:36:56.037Z,19.67
2019-03-15T12:39:24.248Z,19.68
2019-03-15T12:41:52.453Z,19.68
2019-03-15T12:44:20.949Z,19.65
2019-03-15T12:46:49.165Z,19.70
2019-03-15T12:49:17.376Z,19.70
2019-03-15T12:51:47.987Z,19.68
2019-03-15T12:54:16.200Z,19.72
2019-03-15T12:56:53.562Z,19.73
2019-03-15T12:59:14.339Z,19.80
2019-03-15T13:01:42.552Z,19.85
2019-03-15T13:04:10.867Z,19.93
2019-03-15T13:06:39.377Z,19.89
2019-03-15T13:09:07.531Z,19.91
2019-03-15T13:11:35.732Z,19.86
2019-03-15T13:14:03.938Z,19.86
2019-03-15T13:16:32.431Z,19.90
2019-03-15T13:19:00.928Z,19.94
2019-03-15T13:21:29.384Z,19.95
2019-03-15T13:23:57.597Z,19.91
2019-03-15T13:26:28.860Z,19.92
2019-03-15T13:28:55.737Z,19.90
2019-03-15T13:31:23.947Z,19.91
2019-03-15T13:33:52.143Z,19.91
2019-03-15T13:36:20.689Z,19.86
2019-03-15T13:38:48.900Z,19.86
2019-03-15T13:41:17.112Z,19.85
2019-03-15T13:43:45.314Z,19.86
2019-03-15T13:46:13.797Z,19.83
2019-03-15T13:48:42.011Z,19.88
2019-03-15T13:51:10.213Z,19.80
2019-03-15T13:53:38.721Z,19.84
2019-03-15T13:56:07.197Z,19.84
2019-03-15T13:58:35.675Z,19.84
2019-03-15T14:01:03.882Z,19.87
2019-03-15T14:03:32.351Z,19.86
2019-03-15T14:06:00.552Z,19.84
2019-03-15T14:08:28.757Z,19.86
2019-03-15T14:10:57.265Z,19.88
2019-03-15T14:13:25.466Z,19.88
2019-03-15T14:15:53.677Z,19.85
2019-03-15T14:18:22.016Z,19.84
2019-03-15T14:20:50.175Z,19.81
2019-03-15T14:23:18.364Z,19.84
2019-03-15T14:25:46.576Z,19.82
2019-03-15T14:28:14.772Z,19.81
2019-03-15T14:30:42.977Z,19.82
2019-03-15T14:33:11.614Z,19.83
2019-03-15T14:35:39.768Z,19.79
2019-03-15T14:38:08.106Z,19.82
2019-03-15T14:40:36.307Z,19.82
2019-03-15T14:43:04.889Z,19.80
2019-03-15T14:45:33.054Z,19.79
2019-03-15T14:48:01.253Z,19.81
2019-03-15T14:50:29.475Z,19.78
2019-03-15T14:52:57.679Z,19.82
2019-03-15T14:55:25.890Z,19.79
2019-03-15T14:57:54.104Z,19.77
2019-03-15T15:00:22.377Z,19.76
2019-03-15T15:02:50.572Z,19.79
2019-03-15T15:05:18.784Z,19.81
2019-03-15T15:07:47.051Z,19.79
2019-03-15T15:10:17.160Z,19.77
2019-03-15T15:12:45.612Z,19.77
2019-03-15T15:15:15.180Z,19.75
2019-03-15T15:17:43.401Z,19.76
2019-03-15T15:20:12.124Z,19.77
2019-03-15T15:22:40.332Z,19.76
2019-03-15T15:25:15.089Z,19.77
2019-03-15T15:27:42.653Z,19.75
2019-03-15T15:30:15.688Z,19.75
2019-03-15T15:32:44.264Z,19.76
2019-03-15T15:35:13.021Z,19.76
2019-03-15T15:37:41.228Z,19.73
2019-03-15T15:40:18.776Z,19.76
2019-03-15T15:42:47.344Z,19.85
2019-03-15T15:45:15.811Z,19.80
2019-03-15T15:47:44.008Z,19.83
2019-03-15T15:50:13.450Z,19.79
2019-03-15T15:52:41.972Z,19.78
2019-03-15T15:55:12.481Z,19.80
2019-03-15T15:57:40.986Z,19.78
2019-03-15T16:00:15.703Z,19.77
2019-03-15T16:02:43.277Z,19.77
2019-03-15T16:05:11.751Z,19.81
2019-03-15T16:07:39.953Z,19.79
2019-03-15T16:10:13.064Z,19.77
2019-03-15T16:12:41.272Z,19.76
2019-03-15T16:15:11.881Z,19.82
2019-03-15T16:17:40.104Z,19.82
2019-03-15T16:20:11.946Z,19.78
2019-03-15T16:22:40.153Z,19.78
2019-03-15T16:25:09.757Z,19.76
2019-03-15T16:27:37.972Z,19.77
2019-03-15T16:30:09.687Z,19.75
2019-03-15T16:32:37.896Z,19.76
2019-03-15T16:35:08.455Z,19.74
2019-03-15T16:37:36.953Z,19.73
2019-03-15T16:40:07.805Z,19.74
2019-03-15T16:42:36.021Z,19.71
2019-03-15T16:45:10.123Z,19.72
2019-03-15T16:47:38.399Z,19.71
2019-03-15T16:50:09.757Z,19.72
2019-03-15T16:52:38.279Z,19.71
2019-03-15T16:55:09.230Z,19.74
2019-03-15T16:57:37.441Z,19.76
2019-03-15T17:00:11.711Z,19.74
2019-03-15T17:02:40.200Z,19.77
2019-03-15T17:05:10.260Z,19.77
2019-03-15T17:07:38.477Z,19.74
2019-03-15T17:10:11.899Z,19.73
2019-03-15T17:12:40.119Z,19.71
2019-03-15T17:15:20.536Z,19.71
2019-03-15T17:17:49.119Z,19.72
2019-03-15T17:20:17.320Z,19.70
2019-03-15T17:22:45.621Z,19.71
2019-03-15T17:25:13.826Z,19.69
2019-03-15T17:27:42.090Z,19.70
2019-03-15T17:30:13.783Z,19.66
2019-03-15T17:32:42.013Z,19.65
2019-03-15T17:35:12.019Z,19.67
2019-03-15T17:37:40.547Z,19.65
2019-03-15T17:40:14.076Z,19.72
2019-03-15T17:42:42.264Z,19.75
2019-03-15T17:45:11.727Z,19.73
2019-03-15T17:47:39.913Z,19.72
2019-03-15T17:50:14.322Z,19.80
2019-03-15T17:52:42.787Z,19.74
2019-03-15T17:55:11.195Z,19.79
2019-03-15T17:57:39.640Z,19.84
2019-03-15T18:00:24.306Z,19.81
2019-03-15T18:02:52.777Z,19.85
2019-03-15T18:05:20.990Z,19.82
2019-03-15T18:07:49.550Z,19.82
2019-03-15T18:10:17.755Z,19.87
2019-03-15T18:12:45.997Z,19.84
2019-03-15T18:15:14.203Z,19.89
2019-03-15T18:17:42.424Z,19.96
2019-03-15T18:20:11.046Z,19.83
2019-03-15T18:22:39.258Z,19.79
2019-03-15T18:25:08.617Z,19.80
2019-03-15T18:27:36.827Z,19.81
2019-03-15T18:30:11.294Z,19.83
2019-03-15T18:32:39.520Z,19.86
2019-03-15T18:35:09.213Z,19.82
2019-03-15T18:37:37.442Z,19.86
2019-03-15T18:40:16.984Z,19.87
2019-03-15T18:42:45.468Z,19.81
2019-03-15T18:45:15.973Z,19.81
2019-03-15T18:47:44.177Z,19.82
2019-03-15T18:50:20.793Z,19.88
2019-03-15T18:52:48.991Z,19.83
2019-03-15T18:55:17.195Z,19.86
2019-03-15T18:57:45.403Z,19.89
2019-03-15T19:00:15.950Z,19.83
2019-03-15T19:02:44.152Z,19.88
2019-03-15T19:05:12.353Z,19.90
2019-03-15T19:07:40.920Z,19.95
2019-03-15T19:10:11.326Z,19.90
2019-03-15T19:12:39.835Z,19.87
2019-03-15T19:15:11.178Z,19.89
2019-03-15T19:17:39.658Z,19.87
2019-03-15T19:20:13.773Z,19.88
2019-03-15T19:22:41.996Z,19.95
2019-03-15T19:25:11.648Z,19.96
2019-03-15T19:27:39.858Z,19.97
2019-03-15T19:30:17.426Z,20.02
2019-03-15T19:32:45.636Z,19.99
2019-03-15T19:35:13.847Z,19.98
2019-03-15T19:37:42.058Z,20.08
2019-03-15T19:40:20.232Z,20.11
2019-03-15T19:42:49.983Z,20.02
2019-03-15T19:45:18.549Z,20.11
2019-03-15T19:47:46.754Z,20.11
2019-03-15T19:50:21.539Z,20.19
2019-03-15T19:52:49.114Z,20.26
2019-03-15T19:55:17.326Z,20.30
2019-03-15T19:57:45.870Z,20.31
2019-03-15T20:00:17.333Z,20.30
2019-03-15T20:02:45.613Z,20.27
2019-03-15T20:05:13.898Z,20.24
2019-03-15T20:07:42.140Z,20.24
2019-03-15T20:10:16.127Z,20.21
2019-03-15T20:12:42.622Z,20.18
2019-03-15T20:15:12.675Z,20.19
2019-03-15T20:17:40.886Z,20.22
2019-03-15T20:20:15.320Z,20.10
2019-03-15T20:22:43.892Z,20.13
2019-03-15T20:25:18.351Z,20.12
2019-03-15T20:27:46.899Z,20.16
2019-03-15T20:30:26.251Z,20.10
2019-03-15T20:32:55.548Z,20.11
2019-03-15T20:35:23.760Z,20.13
2019-03-15T20:37:52.043Z,20.11
2019-03-15T20:40:20.250Z,20.06
2019-03-15T20:42:48.460Z,20.12
2019-03-15T20:45:24.032Z,20.11
2019-03-15T20:47:52.233Z,20.07
2019-03-15T20:50:20.440Z,20.05
2019-03-15T20:52:49.009Z,20.04
2019-03-15T20:55:17.214Z,20.04
2019-03-15T20:57:45.762Z,20.01
2019-03-15T21:00:34.301Z,20.08
2019-03-15T21:02:51.018Z,20.04
2019-03-15T21:05:19.219Z,20.05
2019-03-15T21:07:47.785Z,20.02
2019-03-15T21:10:19.515Z,20.01
2019-03-15T21:12:47.715Z,20.05
2019-03-15T21:15:16.190Z,20.03
2019-03-15T21:17:44.400Z,20.05
2019-03-15T21:20:18.174Z,20.07
2019-03-15T21:22:46.747Z,20.07
2019-03-15T21:25:14.951Z,20.04
2019-03-15T21:27:52.815Z,19.97
2019-03-15T21:30:15.692Z,19.94
2019-03-15T21:32:43.888Z,19.91
2019-03-15T21:35:12.101Z,19.90
2019-03-15T21:37:40.294Z,19.88
2019-03-15T21:40:11.745Z,19.86
2019-03-15T21:42:39.946Z,19.88
2019-03-15T21:45:11.986Z,19.85
2019-03-15T21:47:40.190Z,19.84
2019-03-15T21:50:13.091Z,19.85
2019-03-15T21:52:41.316Z,19.83
2019-03-15T21:55:09.527Z,19.82
2019-03-15T21:57:37.730Z,19.81
2019-03-15T22:00:09.350Z,19.81
2019-03-15T22:02:37.822Z,19.80
2019-03-15T22:05:07.262Z,19.79
2019-03-15T22:07:35.529Z,19.77
2019-03-15T22:10:05.608Z,19.84
2019-03-15T22:12:33.809Z,19.78
2019-03-15T22:15:02.103Z,19.77
2019-03-15T22:17:30.662Z,19.76
2019-03-15T22:19:59.224Z,19.76
2019-03-15T22:22:27.703Z,19.76
2019-03-15T22:24:55.925Z,19.73
2019-03-15T22:27:24.191Z,19.78
2019-03-15T22:29:53.669Z,19.76
2019-03-15T22:32:22.156Z,19.77
2019-03-15T22:34:52.014Z,19.74
2019-03-15T22:37:20.458Z,19.73
2019-03-15T22:39:50.950Z,19.74
2019-03-15T22:42:19.146Z,19.75
2019-03-15T22:44:47.354Z,19.76
2019-03-15T22:47:15.562Z,19.74
2019-03-15T22:49:44.020Z,19.73
2019-03-15T22:52:12.225Z,19.74
2019-03-15T22:54:40.437Z,19.71
2019-03-15T22:57:08.640Z,19.71
2019-03-15T22:59:36.837Z,19.74
2019-03-15T23:02:05.314Z,19.74
2019-03-15T23:04:33.521Z,19.71
2019-03-15T23:07:01.724Z,19.70
2019-03-15T23:09:30.257Z,19.71
2019-03-15T23:11:58.468Z,19.72
2019-03-15T23:14:27.016Z,19.71
2019-03-15T23:16:55.219Z,19.70
2019-03-15T23:19:23.779Z,19.72
2019-03-15T23:21:51.991Z,19.68
2019-03-15T23:24:20.190Z,19.69
2019-03-15T23:26:48.397Z,19.66
2019-03-15T23:29:16.979Z,19.68
2019-03-15T23:31:45.182Z,19.67
2019-03-15T23:34:13.390Z,19.68
2019-03-15T23:36:41.911Z,19.66
2019-03-15T23:39:10.112Z,19.67
2019-03-15T23:41:38.321Z,19.68
2019-03-15T23:44:06.529Z,19.64
2019-03-15T23:46:35.014Z,19.68
2019-03-15T23:49:03.217Z,19.65
2019-03-15T23:51:31.421Z,19.67
2019-03-15T23:53:59.637Z,19.67
2019-03-15T23:56:28.122Z,19.66
2019-03-15T23:58:56.319Z,19.66
